sensor_id;sensor_type;location;lat;lon;timestamp;pressure;altitude;pressure_sealevel;temperature;humidity
32109;BME280;18624;50.042;8.436;2023-02-12T00:01:07;102599.09;;;5.32;100.00
32109;BME280;18624;50.042;8.436;2023-02-12T00:03:34;102580.63;;;5.26;100.00
32109;BME280;18624;50.042;8.436;2023-02-12T00:06:01;102545.69;;;5.03;100.00
32109;BME280;18624;50.042;8.436;2023-02-12T00:08:27;102603.84;;;5.36;100.00
32109;BME280;18624;50.042;8.436;2023-02-12T00:10:54;102610.13;;;5.36;100.00
32109;BME280;18624;50.042;8.436;2023-02-12T00:13:21;102603.19;;;5.39;100.00
32109;BME280;18624;50.042;8.436;2023-02-12T00:15:47;102601.81;;;5.32;100.00
32109;BME280;18624;50.042;8.436;2023-02-12T00:18:14;102606.13;;;5.33;100.00
32109;BME280;18624;50.042;8.436;2023-02-12T00:20:41;102602.75;;;5.37;100.00
32109;BME280;18624;50.042;8.436;2023-02-12T00:23:07;102598.53;;;5.39;100.00
32109;BME280;18624;50.042;8.436;2023-02-12T00:25:40;102593.78;;;5.36;100.00
32109;BME280;18624;50.042;8.436;2023-02-12T00:28:06;102594.59;;;5.37;100.00
32109;BME280;18624;50.042;8.436;2023-02-12T00:30:34;102594.22;;;5.38;100.00
32109;BME280;18624;50.042;8.436;2023-02-12T00:33:01;102588.00;;;5.38;100.00
32109;BME280;18624;50.042;8.436;2023-02-12T00:35:27;102595.03;;;5.39;100.00
32109;BME280;18624;50.042;8.436;2023-02-12T00:37:54;102596.28;;;5.41;100.00
32109;BME280;18624;50.042;8.436;2023-02-12T00:40:20;102591.63;;;5.42;100.00
32109;BME280;18624;50.042;8.436;2023-02-12T00:42:46;102593.22;;;5.43;100.00
32109;BME280;18624;50.042;8.436;2023-02-12T00:45:13;102599.78;;;5.42;100.00
32109;BME280;18624;50.042;8.436;2023-02-12T00:47:39;102599.44;;;5.43;100.00
32109;BME280;18624;50.042;8.436;2023-02-12T00:50:07;102593.88;;;5.40;100.00
32109;BME280;18624;50.042;8.436;2023-02-12T00:52:34;102538.81;;;5.18;100.00
32109;BME280;18624;50.042;8.436;2023-02-12T00:55:01;102587.09;;;5.46;100.00
32109;BME280;18624;50.042;8.436;2023-02-12T00:57:28;102593.91;;;5.52;100.00
32109;BME280;18624;50.042;8.436;2023-02-12T00:59:55;102577.25;;;5.41;100.00
32109;BME280;18624;50.042;8.436;2023-02-12T01:02:22;102595.16;;;5.54;100.00
32109;BME280;18624;50.042;8.436;2023-02-12T01:04:48;102599.47;;;5.55;100.00
32109;BME280;18624;50.042;8.436;2023-02-12T01:07:15;102596.75;;;5.55;100.00
32109;BME280;18624;50.042;8.436;2023-02-12T01:09:41;102595.59;;;5.56;100.00
32109;BME280;18624;50.042;8.436;2023-02-12T01:12:08;102602.63;;;5.57;100.00
32109;BME280;18624;50.042;8.436;2023-02-12T01:14:34;102595.16;;;5.54;100.00
32109;BME280;18624;50.042;8.436;2023-02-12T01:17:02;102595.59;;;5.56;100.00
32109;BME280;18624;50.042;8.436;2023-02-12T01:19:28;102595.25;;;5.58;100.00
32109;BME280;18624;50.042;8.436;2023-02-12T01:21:55;102593.34;;;5.58;100.00
32109;BME280;18624;50.042;8.436;2023-02-12T01:24:21;102602.31;;;5.59;100.00
32109;BME280;18624;50.042;8.436;2023-02-12T01:26:49;102592.22;;;5.59;100.00
32109;BME280;18624;50.042;8.436;2023-02-12T01:29:15;102587.56;;;5.60;100.00
32109;BME280;18624;50.042;8.436;2023-02-12T01:31:42;102584.06;;;5.59;100.00
32109;BME280;18624;50.042;8.436;2023-02-12T01:34:09;102588.34;;;5.61;100.00
32109;BME280;18624;50.042;8.436;2023-02-12T01:36:37;102593.78;;;5.61;100.00
32109;BME280;18624;50.042;8.436;2023-02-12T01:39:04;102584.50;;;5.62;100.00
32109;BME280;18624;50.042;8.436;2023-02-12T01:41:37;102595.38;;;5.62;100.00
32109;BME280;18624;50.042;8.436;2023-02-12T01:44:19;102591.50;;;5.63;100.00
32109;BME280;18624;50.042;8.436;2023-02-12T01:46:49;102591.88;;;5.61;100.00
32109;BME280;18624;50.042;8.436;2023-02-12T01:49:21;102598.09;;;5.62;100.00
32109;BME280;18624;50.042;8.436;2023-02-12T01:51:53;102558.88;;;5.38;100.00
32109;BME280;18624;50.042;8.436;2023-02-12T01:54:21;102575.44;;;5.45;100.00
32109;BME280;18624;50.042;8.436;2023-02-12T01:56:51;102591.50;;;5.63;100.00
32109;BME280;18624;50.042;8.436;2023-02-12T01:59:18;102594.69;;;5.65;100.00
32109;BME280;18624;50.042;8.436;2023-02-12T02:01:46;102592.78;;;5.65;100.00
32109;BME280;18624;50.042;8.436;2023-02-12T02:04:16;102582.25;;;5.64;100.00
32109;BME280;18624;50.042;8.436;2023-02-12T02:06:59;102588.78;;;5.63;100.00
32109;BME280;18624;50.042;8.436;2023-02-12T02:09:29;102584.50;;;5.62;100.00
32109;BME280;18624;50.042;8.436;2023-02-12T02:11:56;102588.34;;;5.61;100.00
32109;BME280;18624;50.042;8.436;2023-02-12T02:14:42;102589.03;;;5.57;100.00
32109;BME280;18624;50.042;8.436;2023-02-12T02:22:41;102579.38;;;5.48;100.00
32109;BME280;18624;50.042;8.436;2023-02-12T02:30:58;102593.91;;;5.52;100.00
32109;BME280;18624;50.042;8.436;2023-02-12T02:33:36;102597.41;;;5.52;100.00
32109;BME280;18624;50.042;8.436;2023-02-12T02:38:43;102586.88;;;5.51;100.00
32109;BME280;18624;50.042;8.436;2023-02-12T02:41:19;102589.59;;;5.51;100.00
32109;BME280;18624;50.042;8.436;2023-02-12T02:43:50;102512.63;;;5.01;100.00
32109;BME280;18624;50.042;8.436;2023-02-12T02:46:23;102586.88;;;5.51;100.00
32109;BME280;18624;50.042;8.436;2023-02-12T02:48:55;102587.22;;;5.49;100.00
32109;BME280;18624;50.042;8.436;2023-02-12T02:51:36;102558.88;;;5.38;100.00
32109;BME280;18624;50.042;8.436;2023-02-12T02:54:09;102574.75;;;5.48;100.00
32109;BME280;18624;50.042;8.436;2023-02-12T02:56:40;102580.97;;;5.49;100.00
32109;BME280;18624;50.042;8.436;2023-02-12T02:59:11;102583.69;;;5.49;100.00
32109;BME280;18624;50.042;8.436;2023-02-12T03:01:49;102574.75;;;5.48;100.00
32109;BME280;18624;50.042;8.436;2023-02-12T03:04:21;102568.50;;;5.48;100.00
32109;BME280;18624;50.042;8.436;2023-02-12T03:07:02;102565.78;;;5.48;100.00
32109;BME280;18624;50.042;8.436;2023-02-12T03:09:35;102571.91;;;5.45;100.00
32109;BME280;18624;50.042;8.436;2023-02-12T03:12:13;102594.13;;;5.47;100.00
32109;BME280;18624;50.042;8.436;2023-02-12T03:14:45;102573.94;;;5.48;100.00
32109;BME280;18624;50.042;8.436;2023-02-12T03:17:20;102565.91;;;5.39;100.00
32109;BME280;18624;50.042;8.436;2023-02-12T03:19:54;102579.28;;;5.44;100.00
32109;BME280;18624;50.042;8.436;2023-02-12T03:22:27;102582.34;;;5.43;100.00
32109;BME280;18624;50.042;8.436;2023-02-12T03:25:08;102585.41;;;5.41;100.00
32109;BME280;18624;50.042;8.436;2023-02-12T03:27:41;102583.00;;;5.40;100.00
32109;BME280;18624;50.042;8.436;2023-02-12T03:30:10;102589.72;;;5.42;100.00
32109;BME280;18624;50.042;8.436;2023-02-12T03:32:56;102583.13;;;5.43;100.00
32109;BME280;18624;50.042;8.436;2023-02-12T03:35:31;102584.72;;;5.44;100.00
32109;BME280;18624;50.042;8.436;2023-02-12T03:38:08;102511.50;;;5.02;100.00
32109;BME280;18624;50.042;8.436;2023-02-12T03:40:41;102448.94;;;4.53;100.00
32109;BME280;18624;50.042;8.436;2023-02-12T03:43:26;102582.56;;;5.38;100.00
32109;BME280;18624;50.042;8.436;2023-02-12T03:46:09;102483.94;;;4.67;100.00
32109;BME280;18624;50.042;8.436;2023-02-12T03:48:46;102586.19;;;5.29;100.00
32109;BME280;18624;50.042;8.436;2023-02-12T03:51:23;102590.03;;;5.28;100.00
32109;BME280;18624;50.042;8.436;2023-02-12T03:53:50;102591.97;;;5.28;100.00
32109;BME280;18624;50.042;8.436;2023-02-12T03:56:22;102593.09;;;5.27;100.00
32109;BME280;18624;50.042;8.436;2023-02-12T03:58:50;102592.28;;;5.26;100.00
32109;BME280;18624;50.042;8.436;2023-02-12T04:01:17;102590.38;;;5.27;100.00
32109;BME280;18624;50.042;8.436;2023-02-12T04:03:44;102599.78;;;5.29;100.00
32109;BME280;18624;50.042;8.436;2023-02-12T04:06:25;102597.19;;;5.33;100.00
32109;BME280;18624;50.042;8.436;2023-02-12T04:08:54;102602.28;;;5.34;100.00
32109;BME280;18624;50.042;8.436;2023-02-12T04:11:46;102601.94;;;5.36;100.00
32109;BME280;18624;50.042;8.436;2023-02-12T04:14:30;102567.03;;;5.14;100.00
32109;BME280;18624;50.042;8.436;2023-02-12T04:25:28;102611.25;;;5.47;100.00
32109;BME280;18624;50.042;8.436;2023-02-12T04:30:47;102613.16;;;5.47;100.00
32109;BME280;18624;50.042;8.436;2023-02-12T04:33:20;102622.78;;;5.44;100.00
32109;BME280;18624;50.042;8.436;2023-02-12T04:36:00;102549.06;;;4.88;100.00
32109;BME280;18624;50.042;8.436;2023-02-12T04:38:50;102626.31;;;5.32;100.00
32109;BME280;18624;50.042;8.436;2023-02-12T04:41:22;102630.69;;;5.25;100.00
32109;BME280;18624;50.042;8.436;2023-02-12T04:43:49;102629.78;;;5.21;100.00
32109;BME280;18624;50.042;8.436;2023-02-12T04:46:15;102634.78;;;5.19;100.00
32109;BME280;18624;50.042;8.436;2023-02-12T04:48:51;102618.78;;;5.05;100.00
32109;BME280;18624;50.042;8.436;2023-02-12T04:51:18;102629.34;;;5.19;100.00
32109;BME280;18624;50.042;8.436;2023-02-12T04:53:45;102635.09;;;5.17;100.00
32109;BME280;18624;50.042;8.436;2023-02-12T04:56:12;102639.19;;;5.23;100.00
32109;BME280;18624;50.042;8.436;2023-02-12T04:58:40;102635.69;;;5.23;100.00
32109;BME280;18624;50.042;8.436;2023-02-12T05:01:06;102637.94;;;5.21;100.00
32109;BME280;18624;50.042;8.436;2023-02-12T05:03:34;102638.59;;;5.18;100.00
32109;BME280;18624;50.042;8.436;2023-02-12T05:06:04;102649.81;;;5.16;100.00
32109;BME280;18624;50.042;8.436;2023-02-12T05:08:31;102570.31;;;4.74;100.00
32109;BME280;18624;50.042;8.436;2023-02-12T05:11:05;102637.50;;;5.19;100.00
32109;BME280;18624;50.042;8.436;2023-02-12T05:13:32;102625.00;;;5.18;100.00
32109;BME280;18624;50.042;8.436;2023-02-12T05:15:59;102630.44;;;5.18;100.00
32109;BME280;18624;50.042;8.436;2023-02-12T05:18:26;102616.97;;;5.09;100.00
32109;BME280;18624;50.042;8.436;2023-02-12T05:20:56;102621.41;;;5.14;100.00
32109;BME280;18624;50.042;8.436;2023-02-12T05:23:31;102605.63;;;5.07;100.00
32109;BME280;18624;50.042;8.436;2023-02-12T05:25:59;102608.34;;;5.07;100.00
32109;BME280;18624;50.042;8.436;2023-02-12T05:28:26;102620.84;;;5.20;100.00
32109;BME280;18624;50.042;8.436;2023-02-12T05:30:53;102622.88;;;5.23;100.00
32109;BME280;18624;50.042;8.436;2023-02-12T05:33:20;102625.25;;;5.25;100.00
32109;BME280;18624;50.042;8.436;2023-02-12T05:35:46;102621.88;;;5.28;100.00
32109;BME280;18624;50.042;8.436;2023-02-12T05:38:12;102634.00;;;5.30;100.00
32109;BME280;18624;50.042;8.436;2023-02-12T05:40:39;102621.19;;;5.31;100.00
32109;BME280;18624;50.042;8.436;2023-02-12T05:43:06;102630.16;;;5.31;100.00
32109;BME280;18624;50.042;8.436;2023-02-12T05:45:32;102624.72;;;5.31;100.00
32109;BME280;18624;50.042;8.436;2023-02-12T05:47:59;102627.44;;;5.31;100.00
32109;BME280;18624;50.042;8.436;2023-02-12T05:50:25;102625.03;;;5.30;100.00
32109;BME280;18624;50.042;8.436;2023-02-12T05:52:59;102552.31;;;4.81;100.00
32109;BME280;18624;50.042;8.436;2023-02-12T05:55:26;102631.41;;;5.34;100.00
32109;BME280;18624;50.042;8.436;2023-02-12T05:57:52;102626.63;;;5.31;100.00
32109;BME280;18624;50.042;8.436;2023-02-12T06:00:19;102630.47;;;5.30;100.00
32109;BME280;18624;50.042;8.436;2023-02-12T06:02:46;102631.75;;;5.32;100.00
32109;BME280;18624;50.042;8.436;2023-02-12T06:05:12;102625.16;;;5.33;100.00
32109;BME280;18624;50.042;8.436;2023-02-12T06:07:39;102632.53;;;5.33;100.00
32109;BME280;18624;50.042;8.436;2023-02-12T06:10:06;102632.53;;;5.33;100.00
32109;BME280;18624;50.042;8.436;2023-02-12T06:12:32;102634.00;;;5.30;100.00
32109;BME280;18624;50.042;8.436;2023-02-12T06:14:59;102635.13;;;5.29;100.00
32109;BME280;18624;50.042;8.436;2023-02-12T06:17:25;102632.75;;;5.28;100.00
32109;BME280;18624;50.042;8.436;2023-02-12T06:19:52;102631.63;;;5.29;100.00
32109;BME280;18624;50.042;8.436;2023-02-12T06:22:18;102627.19;;;5.24;100.00
32109;BME280;18624;50.042;8.436;2023-02-12T06:24:44;102641.69;;;5.28;100.00
32109;BME280;18624;50.042;8.436;2023-02-12T06:27:11;102646.00;;;5.29;100.00
32109;BME280;18624;50.042;8.436;2023-02-12T06:29:37;102645.22;;;5.29;100.00
32109;BME280;18624;50.042;8.436;2023-02-12T06:32:04;102645.22;;;5.29;100.00
32109;BME280;18624;50.042;8.436;2023-02-12T06:34:32;102649.50;;;5.30;100.00
32109;BME280;18624;50.042;8.436;2023-02-12T06:36:59;102654.63;;;5.31;100.00
32109;BME280;18624;50.042;8.436;2023-02-12T06:39:25;102650.00;;;5.32;100.00
32109;BME280;18624;50.042;8.436;2023-02-12T06:41:52;102656.22;;;5.32;100.00
32109;BME280;18624;50.042;8.436;2023-02-12T06:44:19;102645.22;;;5.29;100.00
32109;BME280;18624;50.042;8.436;2023-02-12T06:46:46;102662.09;;;5.34;100.00
32109;BME280;18624;50.042;8.436;2023-02-12T06:49:13;102662.88;;;5.35;100.00
32109;BME280;18624;50.042;8.436;2023-02-12T06:51:40;102666.75;;;5.34;100.00
32109;BME280;18624;50.042;8.436;2023-02-12T06:54:14;102678.09;;;5.36;100.00
32109;BME280;18624;50.042;8.436;2023-02-12T06:56:40;102668.81;;;5.37;100.00
32109;BME280;18624;50.042;8.436;2023-02-12T06:59:12;102670.03;;;5.40;100.00
32109;BME280;18624;50.042;8.436;2023-02-12T07:01:40;102576.00;;;4.81;100.00
32109;BME280;18624;50.042;8.436;2023-02-12T07:04:06;102665.50;;;5.44;100.00
32109;BME280;18624;50.042;8.436;2023-02-12T07:06:34;102672.53;;;5.45;100.00
32109;BME280;18624;50.042;8.436;2023-02-12T07:09:02;102676.06;;;5.45;100.00
32109;BME280;18624;50.042;8.436;2023-02-12T07:11:31;102667.44;;;5.43;100.00
32109;BME280;18624;50.042;8.436;2023-02-12T07:14:02;102673.00;;;5.47;100.00
32109;BME280;18624;50.042;8.436;2023-02-12T07:16:28;102673.47;;;5.49;100.00
32109;BME280;18624;50.042;8.436;2023-02-12T07:18:55;102676.19;;;5.49;100.00
32109;BME280;18624;50.042;8.436;2023-02-12T07:21:21;102676.19;;;5.49;100.00
32109;BME280;18624;50.042;8.436;2023-02-12T07:23:49;102677.78;;;5.50;100.00
32109;BME280;18624;50.042;8.436;2023-02-12T07:26:17;102680.16;;;5.51;100.00
32109;BME280;18624;50.042;8.436;2023-02-12T07:28:44;102673.59;;;5.52;100.00
32109;BME280;18624;50.042;8.436;2023-02-12T07:31:21;102681.75;;;5.52;100.00
32109;BME280;18624;50.042;8.436;2023-02-12T07:33:48;102676.31;;;5.52;100.00
32109;BME280;18624;50.042;8.436;2023-02-12T07:36:18;102684.47;;;5.52;100.00
32109;BME280;18624;50.042;8.436;2023-02-12T07:38:45;102683.31;;;5.53;100.00
32109;BME280;18624;50.042;8.436;2023-02-12T07:41:17;102679.50;;;5.54;100.00
32109;BME280;18624;50.042;8.436;2023-02-12T07:43:45;102690.38;;;5.54;100.00
32109;BME280;18624;50.042;8.436;2023-02-12T07:46:15;102689.59;;;5.54;100.00
32109;BME280;18624;50.042;8.436;2023-02-12T07:48:43;102696.13;;;5.53;100.00
32109;BME280;18624;50.042;8.436;2023-02-12T07:51:11;102696.81;;;5.50;100.00
32109;BME280;18624;50.042;8.436;2023-02-12T07:53:39;102702.13;;;5.46;100.00
32109;BME280;18624;50.042;8.436;2023-02-12T07:56:13;102706.78;;;5.46;100.00
32109;BME280;18624;50.042;8.436;2023-02-12T07:58:41;102704.72;;;5.43;100.00
32109;BME280;18624;50.042;8.436;2023-02-12T08:01:21;102711.31;;;5.42;100.00
32109;BME280;18624;50.042;8.436;2023-02-12T08:03:49;102715.47;;;5.39;100.00
32109;BME280;18624;50.042;8.436;2023-02-12T08:06:21;102710.84;;;5.40;100.00
32109;BME280;18624;50.042;8.436;2023-02-12T08:08:52;102715.16;;;5.41;100.00
32109;BME280;18624;50.042;8.436;2023-02-12T08:11:20;102716.41;;;5.43;100.00
32109;BME280;18624;50.042;8.436;2023-02-12T08:13:47;102714.03;;;5.42;100.00
32109;BME280;18624;50.042;8.436;2023-02-12T08:16:16;102714.81;;;5.42;100.00
32109;BME280;18624;50.042;8.436;2023-02-12T08:18:43;102707.44;;;5.43;100.00
32109;BME280;18624;50.042;8.436;2023-02-12T08:21:12;102708.25;;;5.43;100.00
32109;BME280;18624;50.042;8.436;2023-02-12T08:23:39;102703.47;;;5.40;100.00
32109;BME280;18624;50.042;8.436;2023-02-12T08:28:37;102714.72;;;5.51;100.00
32109;BME280;18624;50.042;8.436;2023-02-12T08:31:07;102721.88;;;5.55;100.00
32109;BME280;18624;50.042;8.436;2023-02-12T08:33:33;102720.06;;;5.59;100.00
32109;BME280;18624;50.042;8.436;2023-02-12T08:38:28;102723.25;;;5.62;100.00
32109;BME280;18624;50.042;8.436;2023-02-12T08:40:54;102731.41;;;5.62;100.00
32109;BME280;18624;50.042;8.436;2023-02-12T08:43:21;102725.66;;;5.63;100.00
32109;BME280;18624;50.042;8.436;2023-02-12T08:45:47;102728.03;;;5.65;100.00
32109;BME280;18624;50.042;8.436;2023-02-12T08:48:14;102726.53;;;5.67;100.00
32109;BME280;18624;50.042;8.436;2023-02-12T08:50:40;102724.28;;;5.69;100.00
32109;BME280;18624;50.042;8.436;2023-02-12T08:53:06;102733.69;;;5.72;100.00
32109;BME280;18624;50.042;8.436;2023-02-12T08:55:33;102730.66;;;5.73;100.00
32109;BME280;18624;50.042;8.436;2023-02-12T08:57:59;102599.22;;;4.91;100.00
32109;BME280;18624;50.042;8.436;2023-02-12T09:00:27;102729.63;;;5.78;100.00
32109;BME280;18624;50.042;8.436;2023-02-12T09:02:54;102736.44;;;5.84;100.00
32109;BME280;18624;50.042;8.436;2023-02-12T09:05:20;102732.56;;;5.85;100.00
32109;BME280;18624;50.042;8.436;2023-02-12T09:07:47;102726.03;;;5.86;100.00
32109;BME280;18624;50.042;8.436;2023-02-12T09:10:13;102731.13;;;5.88;100.00
32109;BME280;18624;50.042;8.436;2023-02-12T09:12:40;102724.88;;;5.87;100.00
32109;BME280;18624;50.042;8.436;2023-02-12T09:15:07;102723.75;;;5.88;100.00
32109;BME280;18624;50.042;8.436;2023-02-12T09:17:33;102730.56;;;5.94;100.00
32109;BME280;18624;50.042;8.436;2023-02-12T09:20:00;102733.41;;;5.98;100.00
32109;BME280;18624;50.042;8.436;2023-02-12T09:22:27;102730.69;;;5.98;100.00
32109;BME280;18624;50.042;8.436;2023-02-12T09:24:53;102734.22;;;5.98;100.00
32109;BME280;18624;50.042;8.436;2023-02-12T09:27:20;102737.72;;;5.99;100.00
32109;BME280;18624;50.042;8.436;2023-02-12T09:29:46;102739.66;;;5.98;100.00
32109;BME280;18624;50.042;8.436;2023-02-12T09:32:13;102743.28;;;6.02;100.00
32109;BME280;18624;50.042;8.436;2023-02-12T09:34:39;102747.28;;;6.05;100.00
32109;BME280;18624;50.042;8.436;2023-02-12T09:37:06;102742.63;;;6.05;100.00
32109;BME280;18624;50.042;8.436;2023-02-12T09:39:32;102749.31;;;6.08;100.00
32109;BME280;18624;50.042;8.436;2023-02-12T09:42:13;102743.97;;;6.12;100.00
32109;BME280;18624;50.042;8.436;2023-02-12T09:45:02;102748.88;;;6.18;100.00
32109;BME280;18624;50.042;8.436;2023-02-12T09:47:43;102749.66;;;6.19;100.00
32109;BME280;18624;50.042;8.436;2023-02-12T09:50:28;102746.59;;;6.20;100.00
32109;BME280;18624;50.042;8.436;2023-02-12T09:52:59;102759.06;;;6.21;100.00
32109;BME280;18624;50.042;8.436;2023-02-12T09:55:30;102750.56;;;6.23;100.00
32109;BME280;18624;50.042;8.436;2023-02-12T09:57:59;102738.75;;;6.19;100.00
32109;BME280;18624;50.042;8.436;2023-02-12T10:00:28;102738.75;;;6.19;100.00
32109;BME280;18624;50.042;8.436;2023-02-12T10:03:00;102745.78;;;6.20;100.00
32109;BME280;18624;50.042;8.436;2023-02-12T10:05:35;102707.34;;;5.97;100.00
32109;BME280;18624;50.042;8.436;2023-02-12T10:10:53;102746.16;;;6.30;100.00
32109;BME280;18624;50.042;8.436;2023-02-12T10:19:17;102750.41;;;6.44;100.00
32109;BME280;18624;50.042;8.436;2023-02-12T10:22:04;102745.09;;;6.47;100.00
32109;BME280;18624;50.042;8.436;2023-02-12T10:27:24;102745.31;;;6.54;100.00
32109;BME280;18624;50.042;8.436;2023-02-12T10:29:56;102679.09;;;6.14;100.00
32109;BME280;18624;50.042;8.436;2023-02-12T10:32:29;102749.38;;;6.60;100.00
32109;BME280;18624;50.042;8.436;2023-02-12T10:34:58;102750.53;;;6.59;100.00
32109;BME280;18624;50.042;8.436;2023-02-12T10:40:20;102749.50;;;6.64;100.00
32109;BME280;18624;50.042;8.436;2023-02-12T10:42:49;102747.22;;;6.66;100.00
32109;BME280;18624;50.042;8.436;2023-02-12T10:45:20;102740.72;;;6.71;100.00
32109;BME280;18624;50.042;8.436;2023-02-12T10:47:50;102738.72;;;6.68;100.00
32109;BME280;18624;50.042;8.436;2023-02-12T10:52:55;102732.78;;;6.78;100.00
32109;BME280;18624;50.042;8.436;2023-02-12T10:55:25;102739.25;;;6.85;100.00
32109;BME280;18624;50.042;8.436;2023-02-12T10:57:52;102730.03;;;6.90;100.00
32109;BME280;18624;50.042;8.436;2023-02-12T11:05:38;102735.22;;;6.95;100.00
32109;BME280;18624;50.042;8.436;2023-02-12T11:08:06;102706.63;;;6.89;100.00
32109;BME280;18624;50.042;8.436;2023-02-12T11:10:39;102720.91;;;6.98;100.00
32109;BME280;18624;50.042;8.436;2023-02-12T11:13:24;102713.59;;;7.02;100.00
32109;BME280;18624;50.042;8.436;2023-02-12T11:15:51;102705.88;;;7.04;100.00
32109;BME280;18624;50.042;8.436;2023-02-12T11:18:23;102706.31;;;7.06;100.00
32109;BME280;18624;50.042;8.436;2023-02-12T11:20:55;102700.78;;;7.03;100.00
32109;BME280;18624;50.042;8.436;2023-02-12T11:25:58;102569.56;;;6.20;100.00
32109;BME280;18624;50.042;8.436;2023-02-12T11:28:25;102613.38;;;6.55;100.00
32109;BME280;18624;50.042;8.436;2023-02-12T11:31:22;102696.28;;;7.10;100.00
32109;BME280;18624;50.042;8.436;2023-02-12T11:36:35;102695.00;;;7.20;100.00
32109;BME280;18624;50.042;8.436;2023-02-12T11:39:02;102681.81;;;7.22;100.00
32109;BME280;18624;50.042;8.436;2023-02-12T11:41:33;102679.88;;;7.23;100.00
32109;BME280;18624;50.042;8.436;2023-02-12T11:44:11;102690.09;;;7.26;100.00
32109;BME280;18624;50.042;8.436;2023-02-12T11:46:39;102682.88;;;7.33;100.00
32109;BME280;18624;50.042;8.436;2023-02-12T11:49:13;102685.69;;;7.37;100.00
32109;BME280;18624;50.042;8.436;2023-02-12T11:51:46;102679.28;;;7.45;100.00
32109;BME280;18624;50.042;8.436;2023-02-12T11:54:19;102671.09;;;7.45;100.00
32109;BME280;18624;50.042;8.436;2023-02-12T11:56:48;102671.91;;;7.46;100.00
32109;BME280;18624;50.042;8.436;2023-02-12T11:59:31;102654.31;;;7.43;100.00
32109;BME280;18624;50.042;8.436;2023-02-12T12:02:04;102670.94;;;7.54;100.00
32109;BME280;18624;50.042;8.436;2023-02-12T12:04:32;102670.16;;;7.53;100.00
32109;BME280;18624;50.042;8.436;2023-02-12T12:07:11;102644.88;;;7.41;100.00
32109;BME280;18624;50.042;8.436;2023-02-12T12:09:44;102659.75;;;7.59;100.00
32109;BME280;18624;50.042;8.436;2023-02-12T12:12:20;102661.88;;;7.66;100.00
32109;BME280;18624;50.042;8.436;2023-02-12T12:14:51;102658.16;;;7.74;100.00
32109;BME280;18624;50.042;8.436;2023-02-12T12:17:58;102650.34;;;7.72;100.00
32109;BME280;18624;50.042;8.436;2023-02-12T12:20:52;102650.34;;;7.72;100.00
32109;BME280;18624;50.042;8.436;2023-02-12T12:23:36;102651.91;;;7.73;100.00
32109;BME280;18624;50.042;8.436;2023-02-12T12:26:10;102647.22;;;7.74;100.00
32109;BME280;18624;50.042;8.436;2023-02-12T12:28:46;102648.84;;;7.75;100.00
32109;BME280;18624;50.042;8.436;2023-02-12T12:31:18;102643.44;;;7.78;100.00
32109;BME280;18624;50.042;8.436;2023-02-12T12:34:02;102644.31;;;7.82;100.00
32109;BME280;18624;50.042;8.436;2023-02-12T12:39:29;102626.81;;;7.83;100.00
32109;BME280;18624;50.042;8.436;2023-02-12T12:42:07;102627.16;;;7.82;100.00
32109;BME280;18624;50.042;8.436;2023-02-12T12:47:43;102627.25;;;7.85;100.00
32109;BME280;18624;50.042;8.436;2023-02-12T13:08:18;102622.69;;;8.09;100.00
32109;BME280;18624;50.042;8.436;2023-02-12T13:10:59;102622.34;;;8.10;100.00
32109;BME280;18624;50.042;8.436;2023-02-12T13:13:38;102614.16;;;8.10;100.00
32109;BME280;18624;50.042;8.436;2023-02-12T13:16:22;102613.09;;;8.15;100.00
32109;BME280;18624;50.042;8.436;2023-02-12T13:19:07;102612.34;;;8.18;100.00
32109;BME280;18624;50.042;8.436;2023-02-12T13:24:56;102602.22;;;8.19;100.00
32109;BME280;18624;50.042;8.436;2023-02-12T13:27:29;102602.66;;;8.21;100.00
32109;BME280;18624;50.042;8.436;2023-02-12T13:32:28;102598.84;;;8.25;100.00
32109;BME280;18624;50.042;8.436;2023-02-12T13:34:56;102595.75;;;8.27;100.00
32109;BME280;18624;50.042;8.436;2023-02-12T13:37:40;102596.53;;;8.27;100.00
32109;BME280;18624;50.042;8.436;2023-02-12T13:40:18;102598.13;;;8.28;100.00
32109;BME280;18624;50.042;8.436;2023-02-12T13:42:52;102593.53;;;8.32;100.00
32109;BME280;18624;50.042;8.436;2023-02-12T13:51:00;102590.00;;;8.32;100.00
32109;BME280;18624;50.042;8.436;2023-02-12T13:59:00;102586.22;;;8.36;100.00
32109;BME280;18624;50.042;8.436;2023-02-12T14:01:46;102588.63;;;8.38;100.00
32109;BME280;18624;50.042;8.436;2023-02-12T14:04:37;102586.69;;;8.39;100.00
32109;BME280;18624;50.042;8.436;2023-02-12T14:07:12;102588.63;;;8.38;100.00
32109;BME280;18624;50.042;8.436;2023-02-12T14:09:58;102578.47;;;8.39;100.00
32109;BME280;18624;50.042;8.436;2023-02-12T14:12:31;102578.03;;;8.36;100.00
32109;BME280;18624;50.042;8.436;2023-02-12T14:18:39;102577.69;;;8.38;100.00
32109;BME280;18624;50.042;8.436;2023-02-12T14:20:41;102576.53;;;8.39;100.00
32109;BME280;18624;50.042;8.436;2023-02-12T14:23:26;102578.19;;;8.44;100.00
32109;BME280;18624;50.042;8.436;2023-02-12T14:26:00;102580.13;;;8.43;100.00
32109;BME280;18624;50.042;8.436;2023-02-12T14:28:33;102573.88;;;8.43;100.00
32109;BME280;18624;50.042;8.436;2023-02-12T14:33:48;102577.03;;;8.45;100.00
32109;BME280;18624;50.042;8.436;2023-02-12T14:36:35;102573.50;;;8.44;100.00
32109;BME280;18624;50.042;8.436;2023-02-12T14:41:49;102573.91;;;8.46;100.00
32109;BME280;18624;50.042;8.436;2023-02-12T14:46:46;102563.81;;;8.47;100.00
32109;BME280;18624;50.042;8.436;2023-02-12T14:49:26;102564.63;;;8.51;100.00
32109;BME280;18624;50.042;8.436;2023-02-12T14:54:57;102563.84;;;8.50;100.00
32109;BME280;18624;50.042;8.436;2023-02-12T14:57:27;102570.47;;;8.49;100.00
32109;BME280;18624;50.042;8.436;2023-02-12T15:00:02;102567.34;;;8.47;100.00
32109;BME280;18624;50.042;8.436;2023-02-12T15:02:34;102567.75;;;8.49;100.00